sensor_id;sensor_type;location;lat;lon;timestamp;temperature;humidity
45311;SHT31;68264;51.540;5.854;2024-01-15T00:01:00;1.5;96.9
45311;SHT31;68264;51.540;5.854;2024-01-15T00:14:59;1.4;96.6
45311;SHT31;68264;51.540;5.854;2024-01-15T00:28:59;1.1;96.7
45311;SHT31;68264;51.540;5.854;2024-01-15T00:43:27;1.2;97.0
45311;SHT31;68264;51.540;5.854;2024-01-15T01:11:45;1.2;96.9
45311;SHT31;68264;51.540;5.854;2024-01-15T01:25:44;1.1;96.8
45311;SHT31;68264;51.540;5.854;2024-01-15T01:39:43;1.1;96.7
45311;SHT31;68264;51.540;5.854;2024-01-15T01:53:43;1.1;96.5
45311;SHT31;68264;51.540;5.854;2024-01-15T02:08:43;1.1;96.5
45311;SHT31;68264;51.540;5.854;2024-01-15T02:23:42;1.1;96.4
45311;SHT31;68264;51.540;5.854;2024-01-15T02:38:11;1.1;96.5
45311;SHT31;68264;51.540;5.854;2024-01-15T02:52:30;1.2;96.5
45311;SHT31;68264;51.540;5.854;2024-01-15T03:06:58;1.2;96.3
45311;SHT31;68264;51.540;5.854;2024-01-15T03:21:46;1.1;96.0
45311;SHT31;68264;51.540;5.854;2024-01-15T03:36:06;1.1;95.9
45311;SHT31;68264;51.540;5.854;2024-01-15T03:50:05;1.0;95.9
45311;SHT31;68264;51.540;5.854;2024-01-15T04:04:33;1.0;95.8
45311;SHT31;68264;51.540;5.854;2024-01-15T04:19:53;1.0;96.0
45311;SHT31;68264;51.540;5.854;2024-01-15T04:34:53;1.2;96.1
45311;SHT31;68264;51.540;5.854;2024-01-15T04:49:21;1.3;95.9
45311;SHT31;68264;51.540;5.854;2024-01-15T05:03:41;1.4;95.5
45311;SHT31;68264;51.540;5.854;2024-01-15T05:17:40;1.4;95.0
45311;SHT31;68264;51.540;5.854;2024-01-15T05:31:39;1.5;94.6
45311;SHT31;68264;51.540;5.854;2024-01-15T05:45:38;1.1;95.3
45311;SHT31;68264;51.540;5.854;2024-01-15T06:00:06;1.0;96.1
45311;SHT31;68264;51.540;5.854;2024-01-15T06:15:26;1.1;96.1
45311;SHT31;68264;51.540;5.854;2024-01-15T06:31:59;1.2;96.1
45311;SHT31;68264;51.540;5.854;2024-01-15T06:49:34;1.1;96.3
45311;SHT31;68264;51.540;5.854;2024-01-15T07:06:04;0.9;96.6
45311;SHT31;68264;51.540;5.854;2024-01-15T07:20:23;1.0;96.7
45311;SHT31;68264;51.540;5.854;2024-01-15T07:34:51;1.1;96.6
45311;SHT31;68264;51.540;5.854;2024-01-15T07:49:11;1.1;96.5
45311;SHT31;68264;51.540;5.854;2024-01-15T08:03:39;1.0;96.5
45311;SHT31;68264;51.540;5.854;2024-01-15T08:17:58;0.8;96.9
45311;SHT31;68264;51.540;5.854;2024-01-15T08:31:57;0.9;96.8
45311;SHT31;68264;51.540;5.854;2024-01-15T08:45:56;0.9;96.4
45311;SHT31;68264;51.540;5.854;2024-01-15T09:00:24;0.9;96.3
45311;SHT31;68264;51.540;5.854;2024-01-15T09:15:13;0.9;96.7
45311;SHT31;68264;51.540;5.854;2024-01-15T09:29:32;0.8;96.9
45311;SHT31;68264;51.540;5.854;2024-01-15T09:43:31;0.8;97.2
45311;SHT31;68264;51.540;5.854;2024-01-15T09:57:30;0.9;97.2
45311;SHT31;68264;51.540;5.854;2024-01-15T10:11:29;1.0;96.6
45311;SHT31;68264;51.540;5.854;2024-01-15T10:25:28;1.1;95.7
45311;SHT31;68264;51.540;5.854;2024-01-15T10:39:28;1.7;93.6
45311;SHT31;68264;51.540;5.854;2024-01-15T10:53:27;1.9;92.4
45311;SHT31;68264;51.540;5.854;2024-01-15T11:07:26;1.8;93.3
45311;SHT31;68264;51.540;5.854;2024-01-15T11:21:25;2.0;93.7
45311;SHT31;68264;51.540;5.854;2024-01-15T11:35:53;2.0;93.2
45311;SHT31;68264;51.540;5.854;2024-01-15T11:51:13;2.3;91.7
45311;SHT31;68264;51.540;5.854;2024-01-15T12:06:13;2.2;91.6
45311;SHT31;68264;51.540;5.854;2024-01-15T12:20:12;1.9;92.3
45311;SHT31;68264;51.540;5.854;2024-01-15T12:34:11;1.4;94.3
45311;SHT31;68264;51.540;5.854;2024-01-15T12:48:10;1.5;94.8
45311;SHT31;68264;51.540;5.854;2024-01-15T13:02:10;1.4;95.1
45311;SHT31;68264;51.540;5.854;2024-01-15T13:16:09;1.2;95.5
45311;SHT31;68264;51.540;5.854;2024-01-15T13:30:08;1.1;95.4
45311;SHT31;68264;51.540;5.854;2024-01-15T13:58:35;1.3;95.6
45311;SHT31;68264;51.540;5.854;2024-01-15T14:12:54;1.4;95.2
45311;SHT31;68264;51.540;5.854;2024-01-15T14:27:23;1.4;94.7
45311;SHT31;68264;51.540;5.854;2024-01-15T14:41:42;1.4;94.3
45311;SHT31;68264;51.540;5.854;2024-01-15T14:55:41;1.3;94.9
45311;SHT31;68264;51.540;5.854;2024-01-15T15:09:40;1.2;94.9
45311;SHT31;68264;51.540;5.854;2024-01-15T15:23:39;1.1;95.5
45311;SHT31;68264;51.540;5.854;2024-01-15T15:39:11;1.1;95.5
45311;SHT31;68264;51.540;5.854;2024-01-15T15:55:43;1.2;94.8
45311;SHT31;68264;51.540;5.854;2024-01-15T16:10:42;1.0;94.4
45311;SHT31;68264;51.540;5.854;2024-01-15T16:24:41;0.9;93.7
45311;SHT31;68264;51.540;5.854;2024-01-15T16:38:41;0.8;93.4
45311;SHT31;68264;51.540;5.854;2024-01-15T16:52:40;0.9;93.4
45311;SHT31;68264;51.540;5.854;2024-01-15T17:06:39;1.0;93.1
45311;SHT31;68264;51.540;5.854;2024-01-15T17:21:07;1.0;93.5
45311;SHT31;68264;51.540;5.854;2024-01-15T17:35:26;0.8;93.2
45311;SHT31;68264;51.540;5.854;2024-01-15T17:49:25;0.7;93.3
45311;SHT31;68264;51.540;5.854;2024-01-15T18:03:24;0.6;93.2
45311;SHT31;68264;51.540;5.854;2024-01-15T18:17:23;0.6;93.1
45311;SHT31;68264;51.540;5.854;2024-01-15T18:31:23;0.7;93.1
45311;SHT31;68264;51.540;5.854;2024-01-15T18:45:51;0.8;92.9
45311;SHT31;68264;51.540;5.854;2024-01-15T19:00:39;0.9;94.7
45311;SHT31;68264;51.540;5.854;2024-01-15T19:14:58;0.7;94.8
45311;SHT31;68264;51.540;5.854;2024-01-15T19:28:57;0.6;94.8
45311;SHT31;68264;51.540;5.854;2024-01-15T19:42:57;0.5;95.5
45311;SHT31;68264;51.540;5.854;2024-01-15T19:58:29;0.5;95.1
45311;SHT31;68264;51.540;5.854;2024-01-15T20:13:59;0.4;94.8
45311;SHT31;68264;51.540;5.854;2024-01-15T20:28:27;0.5;95.1
45311;SHT31;68264;51.540;5.854;2024-01-15T20:43:15;0.7;95.6
45311;SHT31;68264;51.540;5.854;2024-01-15T20:58:04;0.7;95.8
45311;SHT31;68264;51.540;5.854;2024-01-15T21:12:23;0.8;96.1
45311;SHT31;68264;51.540;5.854;2024-01-15T21:26:22;0.7;96.1
45311;SHT31;68264;51.540;5.854;2024-01-15T21:40:21;0.8;95.7
45311;SHT31;68264;51.540;5.854;2024-01-15T21:54:20;0.6;95.1
45311;SHT31;68264;51.540;5.854;2024-01-15T22:09:21;0.8;95.0
45311;SHT31;68264;51.540;5.854;2024-01-15T22:24:49;0.7;94.6
45311;SHT31;68264;51.540;5.854;2024-01-15T22:39:09;0.5;94.9
45311;SHT31;68264;51.540;5.854;2024-01-15T22:54:09;0.6;95.2
45311;SHT31;68264;51.540;5.854;2024-01-15T23:09:38;0.7;95.6
45311;SHT31;68264;51.540;5.854;2024-01-15T23:23:57;0.7;95.7
45311;SHT31;68264;51.540;5.854;2024-01-15T23:37:56;0.6;95.7
45311;SHT31;68264;51.540;5.854;2024-01-15T23:51:55;0.6;95.8
